Aérodrome :
LOGIN :

S'inscrire | Disclaimer

   EN    FR    IT 

 










Légende :    VFR   VFR Marginal   IFR   IFR Intensif   IFR Très Intensif
Visi : 
Plafond : 
>= 8 km
>= 3000ft
5 à 8 km
1000 à 3000 ft
1500m à 5 km
500 à 1000 ft
800 à 1500m
200 à 500 ft
< 800m
< 200 ft
Symboles :   Orages  Brouillard  Fortes neiges  Fortes précipitations  Vent > 20 kt
SIGMETs :   Divers  Orages  Givrage  Turbulence  Onde Orograph.  Cendres Volcan.






- Altitude de l'aérodrome : 49 ft
- Code IATA : GLZ


EHGR - Gilze-Rijen Airbase

DERNIER METAR :
  • 150255Z AUTO 02007KT 340V060 9999 BKN110 OVC210 03/02 Q1001 BLU

METARs EXPIRÉS :
  • 150225Z AUTO 03006KT 350V070 9999 BKN110 OVC200 03/02 Q1001 BLU
  • 150155Z AUTO 03007KT 350V080 9999 SCT210 03/02 Q1001 BLU
  • 150125Z AUTO 02007KT 9999 BKN180 OVC230 03/02 Q1002 BLU
  • 150055Z AUTO 03007KT 350V060 9999 OVC190 03/03 Q1002 BLU
  • 150025Z AUTO 02007KT 9999 OVC180 03/03 Q1002 BLU

TAF TAF EHGR
Valide du 14 à 18h jusqu'au 15 à 06h UTC


141755Z 1418/1506 07004KT 9999 BKN035



MET'MAP, la Météo Aéronautique d'un coup d'oeil ! - Copyright ORBIFLY Décembre 2007 - Disclaimer

ORBIFLY MET'MAP TEAM :

Programmation & Développement : Alexandra Zaïnal
Conception & Développement : Baudouin d'Aumeries
Co-Programmation & Développement : Marc-Olivier Méhu
Soutien technique & logistique : Manuel Goepfert

Contact : metmap@orbifly.com




SOURCES & CREDITS :

   NOAA